sensor_id;sensor_type;location;lat;lon;timestamp;P1;durP1;ratioP1;P2;durP2;ratioP2
56331;SDS011;42237;53.340;6.812;2022-09-09T00:04:51;21.85;;;12.80;;
56331;SDS011;42237;53.340;6.812;2022-09-09T00:10:16;24.75;;;13.00;;
56331;SDS011;42237;53.340;6.812;2022-09-09T00:18:44;26.23;;;14.45;;
56331;SDS011;42237;53.340;6.812;2022-09-09T00:21:16;25.05;;;14.90;;
56331;SDS011;42237;53.340;6.812;2022-09-09T00:23:44;23.35;;;14.20;;
56331;SDS011;42237;53.340;6.812;2022-09-09T00:26:22;26.33;;;15.50;;
56331;SDS011;42237;53.340;6.812;2022-09-09T00:29:14;20.00;;;13.63;;
56331;SDS011;42237;53.340;6.812;2022-09-09T00:32:16;28.23;;;15.63;;
56331;SDS011;42237;53.340;6.812;2022-09-09T00:34:55;28.08;;;15.95;;
56331;SDS011;42237;53.340;6.812;2022-09-09T00:37:37;26.20;;;14.85;;
56331;SDS011;42237;53.340;6.812;2022-09-09T00:40:11;24.80;;;15.45;;
56331;SDS011;42237;53.340;6.812;2022-09-09T00:43:05;32.83;;;15.75;;
56331;SDS011;42237;53.340;6.812;2022-09-09T00:51:46;27.92;;;15.85;;
56331;SDS011;42237;53.340;6.812;2022-09-09T00:57:31;30.88;;;17.30;;
56331;SDS011;42237;53.340;6.812;2022-09-09T01:03:02;24.30;;;14.52;;
56331;SDS011;42237;53.340;6.812;2022-09-09T01:11:07;37.97;;;16.48;;
56331;SDS011;42237;53.340;6.812;2022-09-09T01:13:41;26.50;;;14.57;;
56331;SDS011;42237;53.340;6.812;2022-09-09T01:16:10;30.08;;;16.23;;
56331;SDS011;42237;53.340;6.812;2022-09-09T01:18:40;23.98;;;14.45;;
56331;SDS011;42237;53.340;6.812;2022-09-09T01:24:06;30.33;;;14.38;;
56331;SDS011;42237;53.340;6.812;2022-09-09T01:26:44;27.90;;;14.30;;
56331;SDS011;42237;53.340;6.812;2022-09-09T01:29:12;27.17;;;14.10;;
56331;SDS011;42237;53.340;6.812;2022-09-09T01:32:02;27.42;;;15.30;;
56331;SDS011;42237;53.340;6.812;2022-09-09T01:34:38;29.73;;;15.80;;
56331;SDS011;42237;53.340;6.812;2022-09-09T01:37:06;24.73;;;14.45;;
56331;SDS011;42237;53.340;6.812;2022-09-09T01:39:34;28.63;;;14.82;;
56331;SDS011;42237;53.340;6.812;2022-09-09T01:42:03;30.50;;;15.32;;
56331;SDS011;42237;53.340;6.812;2022-09-09T01:44:31;36.42;;;14.65;;
56331;SDS011;42237;53.340;6.812;2022-09-09T01:46:58;25.75;;;14.73;;
56331;SDS011;42237;53.340;6.812;2022-09-09T01:49:24;24.70;;;13.35;;
56331;SDS011;42237;53.340;6.812;2022-09-09T01:51:52;19.90;;;13.38;;
56331;SDS011;42237;53.340;6.812;2022-09-09T01:54:20;23.58;;;12.52;;
56331;SDS011;42237;53.340;6.812;2022-09-09T02:05:36;26.52;;;14.15;;
56331;SDS011;42237;53.340;6.812;2022-09-09T02:08:11;29.90;;;14.65;;
56331;SDS011;42237;53.340;6.812;2022-09-09T02:13:37;23.20;;;13.48;;
56331;SDS011;42237;53.340;6.812;2022-09-09T02:16:08;23.42;;;14.43;;
56331;SDS011;42237;53.340;6.812;2022-09-09T02:21:14;24.90;;;14.45;;
56331;SDS011;42237;53.340;6.812;2022-09-09T02:23:42;24.42;;;14.30;;
56331;SDS011;42237;53.340;6.812;2022-09-09T02:26:12;23.17;;;14.15;;
56331;SDS011;42237;53.340;6.812;2022-09-09T02:28:44;25.05;;;14.07;;
56331;SDS011;42237;53.340;6.812;2022-09-09T02:31:12;28.63;;;15.05;;
56331;SDS011;42237;53.340;6.812;2022-09-09T02:33:41;24.50;;;14.55;;
56331;SDS011;42237;53.340;6.812;2022-09-09T02:36:10;24.10;;;13.32;;
56331;SDS011;42237;53.340;6.812;2022-09-09T02:38:40;25.33;;;14.02;;
56331;SDS011;42237;53.340;6.812;2022-09-09T02:41:08;26.05;;;14.35;;
56331;SDS011;42237;53.340;6.812;2022-09-09T02:43:34;24.67;;;14.27;;
56331;SDS011;42237;53.340;6.812;2022-09-09T02:48:35;22.95;;;13.93;;
56331;SDS011;42237;53.340;6.812;2022-09-09T02:54:04;28.77;;;13.65;;
56331;SDS011;42237;53.340;6.812;2022-09-09T02:56:51;20.80;;;13.23;;
56331;SDS011;42237;53.340;6.812;2022-09-09T02:59:21;28.83;;;15.25;;
56331;SDS011;42237;53.340;6.812;2022-09-09T03:01:47;23.17;;;13.68;;
56331;SDS011;42237;53.340;6.812;2022-09-09T03:04:13;24.90;;;13.45;;
56331;SDS011;42237;53.340;6.812;2022-09-09T03:06:39;24.48;;;14.27;;
56331;SDS011;42237;53.340;6.812;2022-09-09T03:09:05;28.98;;;16.42;;
56331;SDS011;42237;53.340;6.812;2022-09-09T03:11:30;22.30;;;13.82;;
56331;SDS011;42237;53.340;6.812;2022-09-09T03:13:56;27.98;;;13.15;;
56331;SDS011;42237;53.340;6.812;2022-09-09T03:16:22;23.83;;;13.10;;
56331;SDS011;42237;53.340;6.812;2022-09-09T03:18:48;20.52;;;13.38;;
56331;SDS011;42237;53.340;6.812;2022-09-09T03:21:14;25.30;;;12.73;;
56331;SDS011;42237;53.340;6.812;2022-09-09T03:23:40;22.00;;;12.85;;
56331;SDS011;42237;53.340;6.812;2022-09-09T03:26:06;23.98;;;12.90;;
56331;SDS011;42237;53.340;6.812;2022-09-09T03:28:32;27.63;;;14.90;;
56331;SDS011;42237;53.340;6.812;2022-09-09T03:31:01;24.45;;;13.07;;
56331;SDS011;42237;53.340;6.812;2022-09-09T03:33:28;23.20;;;13.48;;
56331;SDS011;42237;53.340;6.812;2022-09-09T03:35:55;19.33;;;12.82;;
56331;SDS011;42237;53.340;6.812;2022-09-09T03:38:24;22.40;;;12.90;;
56331;SDS011;42237;53.340;6.812;2022-09-09T03:40:54;22.23;;;13.23;;
56331;SDS011;42237;53.340;6.812;2022-09-09T03:43:22;23.10;;;13.50;;
56331;SDS011;42237;53.340;6.812;2022-09-09T03:45:51;26.75;;;13.02;;
56331;SDS011;42237;53.340;6.812;2022-09-09T03:48:18;23.98;;;12.85;;
56331;SDS011;42237;53.340;6.812;2022-09-09T03:50:51;22.70;;;12.25;;
56331;SDS011;42237;53.340;6.812;2022-09-09T03:53:19;20.38;;;11.63;;
56331;SDS011;42237;53.340;6.812;2022-09-09T03:55:48;22.50;;;12.93;;
56331;SDS011;42237;53.340;6.812;2022-09-09T03:58:17;19.38;;;11.80;;
56331;SDS011;42237;53.340;6.812;2022-09-09T04:00:52;17.45;;;11.15;;
56331;SDS011;42237;53.340;6.812;2022-09-09T04:03:19;18.35;;;11.00;;
56331;SDS011;42237;53.340;6.812;2022-09-09T04:05:44;21.00;;;11.13;;
56331;SDS011;42237;53.340;6.812;2022-09-09T04:08:13;18.52;;;11.18;;
56331;SDS011;42237;53.340;6.812;2022-09-09T04:10:39;22.58;;;11.63;;
56331;SDS011;42237;53.340;6.812;2022-09-09T04:13:05;24.33;;;11.48;;
56331;SDS011;42237;53.340;6.812;2022-09-09T04:15:30;23.52;;;10.88;;
56331;SDS011;42237;53.340;6.812;2022-09-09T04:17:57;18.65;;;9.20;;
56331;SDS011;42237;53.340;6.812;2022-09-09T04:20:23;18.40;;;10.10;;
56331;SDS011;42237;53.340;6.812;2022-09-09T04:22:48;17.77;;;10.23;;
56331;SDS011;42237;53.340;6.812;2022-09-09T04:25:14;18.30;;;9.75;;
56331;SDS011;42237;53.340;6.812;2022-09-09T04:27:40;16.67;;;9.93;;
56331;SDS011;42237;53.340;6.812;2022-09-09T04:30:07;19.48;;;10.05;;
56331;SDS011;42237;53.340;6.812;2022-09-09T04:32:34;17.58;;;8.38;;
56331;SDS011;42237;53.340;6.812;2022-09-09T04:35:01;16.58;;;8.55;;
56331;SDS011;42237;53.340;6.812;2022-09-09T04:37:27;12.95;;;8.55;;
56331;SDS011;42237;53.340;6.812;2022-09-09T04:39:53;16.75;;;8.35;;
56331;SDS011;42237;53.340;6.812;2022-09-09T04:42:19;20.45;;;8.82;;
56331;SDS011;42237;53.340;6.812;2022-09-09T04:44:44;13.68;;;7.40;;
56331;SDS011;42237;53.340;6.812;2022-09-09T04:47:10;10.07;;;6.70;;
56331;SDS011;42237;53.340;6.812;2022-09-09T04:49:36;11.88;;;6.82;;
56331;SDS011;42237;53.340;6.812;2022-09-09T04:52:02;11.85;;;6.32;;
56331;SDS011;42237;53.340;6.812;2022-09-09T04:54:28;10.15;;;5.82;;
56331;SDS011;42237;53.340;6.812;2022-09-09T04:56:54;12.85;;;5.07;;
56331;SDS011;42237;53.340;6.812;2022-09-09T04:59:20;11.00;;;5.30;;
56331;SDS011;42237;53.340;6.812;2022-09-09T05:01:47;9.52;;;4.88;;
56331;SDS011;42237;53.340;6.812;2022-09-09T05:04:14;11.32;;;4.68;;
56331;SDS011;42237;53.340;6.812;2022-09-09T05:06:41;13.73;;;4.82;;
56331;SDS011;42237;53.340;6.812;2022-09-09T05:09:07;16.23;;;4.80;;
56331;SDS011;42237;53.340;6.812;2022-09-09T05:11:33;12.55;;;4.75;;
56331;SDS011;42237;53.340;6.812;2022-09-09T05:14:01;10.55;;;5.90;;
56331;SDS011;42237;53.340;6.812;2022-09-09T05:16:28;13.68;;;6.03;;
56331;SDS011;42237;53.340;6.812;2022-09-09T05:18:55;10.60;;;6.03;;
56331;SDS011;42237;53.340;6.812;2022-09-09T05:21:22;14.70;;;6.05;;
56331;SDS011;42237;53.340;6.812;2022-09-09T05:23:49;11.20;;;5.70;;
56331;SDS011;42237;53.340;6.812;2022-09-09T05:26:17;13.05;;;5.95;;
56331;SDS011;42237;53.340;6.812;2022-09-09T05:28:44;14.98;;;7.25;;
56331;SDS011;42237;53.340;6.812;2022-09-09T05:31:11;10.65;;;6.10;;
56331;SDS011;42237;53.340;6.812;2022-09-09T05:33:38;13.63;;;8.18;;
56331;SDS011;42237;53.340;6.812;2022-09-09T05:36:06;18.42;;;6.93;;
56331;SDS011;42237;53.340;6.812;2022-09-09T05:38:33;11.98;;;6.72;;
56331;SDS011;42237;53.340;6.812;2022-09-09T05:41:01;16.77;;;6.70;;
56331;SDS011;42237;53.340;6.812;2022-09-09T05:43:27;11.50;;;6.63;;
56331;SDS011;42237;53.340;6.812;2022-09-09T05:46:04;11.45;;;6.32;;
56331;SDS011;42237;53.340;6.812;2022-09-09T05:48:33;12.07;;;6.60;;
56331;SDS011;42237;53.340;6.812;2022-09-09T05:51:00;11.75;;;6.95;;
56331;SDS011;42237;53.340;6.812;2022-09-09T05:53:27;11.82;;;7.18;;
56331;SDS011;42237;53.340;6.812;2022-09-09T05:56:10;16.20;;;7.75;;
56331;SDS011;42237;53.340;6.812;2022-09-09T05:58:41;12.18;;;7.43;;
56331;SDS011;42237;53.340;6.812;2022-09-09T06:03:42;17.38;;;8.55;;
56331;SDS011;42237;53.340;6.812;2022-09-09T06:06:10;17.63;;;9.43;;
56331;SDS011;42237;53.340;6.812;2022-09-09T06:08:38;18.17;;;9.30;;
56331;SDS011;42237;53.340;6.812;2022-09-09T06:11:07;14.93;;;8.98;;
56331;SDS011;42237;53.340;6.812;2022-09-09T06:13:35;16.80;;;10.52;;
56331;SDS011;42237;53.340;6.812;2022-09-09T06:16:05;18.25;;;9.60;;
56331;SDS011;42237;53.340;6.812;2022-09-09T06:18:33;18.38;;;10.00;;
56331;SDS011;42237;53.340;6.812;2022-09-09T06:20:59;18.25;;;10.38;;
56331;SDS011;42237;53.340;6.812;2022-09-09T06:23:27;19.75;;;10.77;;
56331;SDS011;42237;53.340;6.812;2022-09-09T06:26:07;21.38;;;10.23;;
56331;SDS011;42237;53.340;6.812;2022-09-09T06:28:37;19.23;;;9.82;;
56331;SDS011;42237;53.340;6.812;2022-09-09T06:31:04;19.95;;;9.90;;
56331;SDS011;42237;53.340;6.812;2022-09-09T06:33:35;18.02;;;10.48;;
56331;SDS011;42237;53.340;6.812;2022-09-09T06:36:05;18.27;;;10.60;;
56331;SDS011;42237;53.340;6.812;2022-09-09T06:38:31;14.85;;;9.27;;
56331;SDS011;42237;53.340;6.812;2022-09-09T06:40:57;13.40;;;9.18;;
56331;SDS011;42237;53.340;6.812;2022-09-09T06:43:24;16.35;;;10.43;;
56331;SDS011;42237;53.340;6.812;2022-09-09T06:45:55;19.52;;;9.40;;
56331;SDS011;42237;53.340;6.812;2022-09-09T06:48:21;17.42;;;9.55;;
56331;SDS011;42237;53.340;6.812;2022-09-09T06:50:47;16.88;;;9.20;;
56331;SDS011;42237;53.340;6.812;2022-09-09T06:53:18;15.43;;;8.65;;
56331;SDS011;42237;53.340;6.812;2022-09-09T06:55:46;14.25;;;8.68;;
56331;SDS011;42237;53.340;6.812;2022-09-09T06:58:13;15.65;;;9.50;;
56331;SDS011;42237;53.340;6.812;2022-09-09T07:00:38;16.85;;;9.48;;
56331;SDS011;42237;53.340;6.812;2022-09-09T07:03:04;17.50;;;10.38;;
56331;SDS011;42237;53.340;6.812;2022-09-09T07:05:31;12.43;;;8.20;;
56331;SDS011;42237;53.340;6.812;2022-09-09T07:07:57;13.93;;;8.75;;
56331;SDS011;42237;53.340;6.812;2022-09-09T07:10:23;13.77;;;8.52;;
56331;SDS011;42237;53.340;6.812;2022-09-09T07:12:52;14.27;;;8.18;;
56331;SDS011;42237;53.340;6.812;2022-09-09T07:15:18;15.05;;;8.82;;
56331;SDS011;42237;53.340;6.812;2022-09-09T07:17:44;17.80;;;8.43;;
56331;SDS011;42237;53.340;6.812;2022-09-09T07:20:10;19.20;;;8.85;;
56331;SDS011;42237;53.340;6.812;2022-09-09T07:22:36;17.38;;;9.23;;
56331;SDS011;42237;53.340;6.812;2022-09-09T07:25:02;13.05;;;8.75;;
56331;SDS011;42237;53.340;6.812;2022-09-09T07:27:29;16.48;;;9.13;;
56331;SDS011;42237;53.340;6.812;2022-09-09T07:29:55;17.90;;;9.30;;
56331;SDS011;42237;53.340;6.812;2022-09-09T07:32:21;16.50;;;8.50;;
56331;SDS011;42237;53.340;6.812;2022-09-09T07:34:46;11.40;;;8.07;;
56331;SDS011;42237;53.340;6.812;2022-09-09T07:37:12;13.73;;;7.68;;
56331;SDS011;42237;53.340;6.812;2022-09-09T07:39:38;17.25;;;9.38;;
56331;SDS011;42237;53.340;6.812;2022-09-09T07:42:05;12.77;;;8.82;;
56331;SDS011;42237;53.340;6.812;2022-09-09T07:44:30;15.13;;;8.88;;
56331;SDS011;42237;53.340;6.812;2022-09-09T07:47:00;17.35;;;9.27;;
56331;SDS011;42237;53.340;6.812;2022-09-09T07:49:26;15.63;;;8.85;;
56331;SDS011;42237;53.340;6.812;2022-09-09T07:51:52;14.27;;;8.77;;
56331;SDS011;42237;53.340;6.812;2022-09-09T07:54:18;13.45;;;8.18;;
56331;SDS011;42237;53.340;6.812;2022-09-09T07:56:48;13.50;;;8.65;;
56331;SDS011;42237;53.340;6.812;2022-09-09T07:59:15;15.05;;;8.23;;
56331;SDS011;42237;53.340;6.812;2022-09-09T08:01:42;12.73;;;7.72;;
56331;SDS011;42237;53.340;6.812;2022-09-09T08:04:14;13.63;;;8.23;;
56331;SDS011;42237;53.340;6.812;2022-09-09T08:06:48;14.65;;;8.02;;
56331;SDS011;42237;53.340;6.812;2022-09-09T08:09:17;13.95;;;8.80;;
56331;SDS011;42237;53.340;6.812;2022-09-09T08:11:43;15.35;;;8.50;;
56331;SDS011;42237;53.340;6.812;2022-09-09T08:14:09;17.90;;;9.05;;
56331;SDS011;42237;53.340;6.812;2022-09-09T08:16:37;13.70;;;7.80;;
56331;SDS011;42237;53.340;6.812;2022-09-09T08:19:08;13.40;;;8.13;;
56331;SDS011;42237;53.340;6.812;2022-09-09T08:21:34;15.38;;;7.95;;
56331;SDS011;42237;53.340;6.812;2022-09-09T08:24:01;10.48;;;7.88;;
56331;SDS011;42237;53.340;6.812;2022-09-09T08:26:32;9.68;;;6.70;;
56331;SDS011;42237;53.340;6.812;2022-09-09T08:29:07;12.20;;;6.78;;
56331;SDS011;42237;53.340;6.812;2022-09-09T08:31:42;13.63;;;7.30;;
56331;SDS011;42237;53.340;6.812;2022-09-09T08:34:11;12.82;;;7.10;;
56331;SDS011;42237;53.340;6.812;2022-09-09T08:36:44;13.07;;;7.13;;
56331;SDS011;42237;53.340;6.812;2022-09-09T08:39:11;9.43;;;6.18;;
56331;SDS011;42237;53.340;6.812;2022-09-09T08:53:03;12.90;;;6.05;;
56331;SDS011;42237;53.340;6.812;2022-09-09T08:58:08;11.73;;;6.05;;
56331;SDS011;42237;53.340;6.812;2022-09-09T09:03:33;13.75;;;7.13;;
56331;SDS011;42237;53.340;6.812;2022-09-09T09:09:04;13.40;;;6.65;;
56331;SDS011;42237;53.340;6.812;2022-09-09T09:11:44;14.25;;;6.82;;
56331;SDS011;42237;53.340;6.812;2022-09-09T09:14:26;9.75;;;6.05;;
56331;SDS011;42237;53.340;6.812;2022-09-09T09:17:06;10.20;;;5.88;;
56331;SDS011;42237;53.340;6.812;2022-09-09T09:19:39;12.02;;;6.28;;
56331;SDS011;42237;53.340;6.812;2022-09-09T09:22:19;8.80;;;5.82;;
56331;SDS011;42237;53.340;6.812;2022-09-09T09:24:51;11.50;;;5.80;;
56331;SDS011;42237;53.340;6.812;2022-09-09T09:30:18;13.35;;;7.70;;
56331;SDS011;42237;53.340;6.812;2022-09-09T09:32:59;10.70;;;6.65;;
56331;SDS011;42237;53.340;6.812;2022-09-09T09:35:30;12.43;;;7.15;;
56331;SDS011;42237;53.340;6.812;2022-09-09T09:37:56;13.00;;;6.85;;
56331;SDS011;42237;53.340;6.812;2022-09-09T09:40:21;9.13;;;6.90;;
56331;SDS011;42237;53.340;6.812;2022-09-09T09:42:55;11.57;;;7.15;;
56331;SDS011;42237;53.340;6.812;2022-09-09T09:48:04;9.55;;;6.57;;
56331;SDS011;42237;53.340;6.812;2022-09-09T09:50:32;11.70;;;6.53;;
56331;SDS011;42237;53.340;6.812;2022-09-09T09:52:59;8.70;;;6.22;;
56331;SDS011;42237;53.340;6.812;2022-09-09T09:55:28;14.32;;;7.10;;
56331;SDS011;42237;53.340;6.812;2022-09-09T09:58:06;12.00;;;6.93;;
56331;SDS011;42237;53.340;6.812;2022-09-09T10:00:47;10.45;;;7.10;;
56331;SDS011;42237;53.340;6.812;2022-09-09T10:03:27;12.85;;;6.97;;
56331;SDS011;42237;53.340;6.812;2022-09-09T10:05:55;13.55;;;7.25;;
56331;SDS011;42237;53.340;6.812;2022-09-09T10:08:24;13.98;;;7.15;;
56331;SDS011;42237;53.340;6.812;2022-09-09T10:19:30;14.20;;;5.90;;
56331;SDS011;42237;53.340;6.812;2022-09-09T10:22:04;11.38;;;5.80;;
56331;SDS011;42237;53.340;6.812;2022-09-09T10:30:16;15.65;;;6.63;;
56331;SDS011;42237;53.340;6.812;2022-09-09T10:32:45;12.13;;;6.30;;
56331;SDS011;42237;53.340;6.812;2022-09-09T10:35:31;15.32;;;6.93;;
56331;SDS011;42237;53.340;6.812;2022-09-09T10:40:34;18.17;;;6.22;;
56331;SDS011;42237;53.340;6.812;2022-09-09T10:46:43;12.95;;;4.90;;
56331;SDS011;42237;53.340;6.812;2022-09-09T10:57:47;9.68;;;4.25;;
56331;SDS011;42237;53.340;6.812;2022-09-09T11:00:16;11.88;;;4.95;;
56331;SDS011;42237;53.340;6.812;2022-09-09T11:02:55;13.13;;;4.25;;
56331;SDS011;42237;53.340;6.812;2022-09-09T11:05:30;12.48;;;4.55;;
56331;SDS011;42237;53.340;6.812;2022-09-09T11:21:35;9.88;;;3.45;;
56331;SDS011;42237;53.340;6.812;2022-09-09T11:24:13;11.10;;;4.07;;
56331;SDS011;42237;53.340;6.812;2022-09-09T11:26:57;8.15;;;3.70;;
56331;SDS011;42237;53.340;6.812;2022-09-09T11:40:45;9.55;;;4.22;;
56331;SDS011;42237;53.340;6.812;2022-09-09T11:43:15;10.05;;;3.88;;
56331;SDS011;42237;53.340;6.812;2022-09-09T11:45:53;8.50;;;3.83;;
56331;SDS011;42237;53.340;6.812;2022-09-09T11:51:07;14.10;;;2.60;;
56331;SDS011;42237;53.340;6.812;2022-09-09T11:54:02;5.85;;;3.00;;
56331;SDS011;42237;53.340;6.812;2022-09-09T11:56:48;10.75;;;3.35;;
56331;SDS011;42237;53.340;6.812;2022-09-09T12:01:55;8.68;;;2.83;;
56331;SDS011;42237;53.340;6.812;2022-09-09T12:06:51;11.38;;;3.33;;
56331;SDS011;42237;53.340;6.812;2022-09-09T12:17:27;7.50;;;2.50;;
56331;SDS011;42237;53.340;6.812;2022-09-09T12:28:39;7.72;;;2.85;;
56331;SDS011;42237;53.340;6.812;2022-09-09T12:35:00;7.93;;;2.60;;
56331;SDS011;42237;53.340;6.812;2022-09-09T12:36:59;7.88;;;2.47;;
56331;SDS011;42237;53.340;6.812;2022-09-09T12:39:51;6.07;;;2.60;;
56331;SDS011;42237;53.340;6.812;2022-09-09T12:42:21;12.68;;;3.20;;
56331;SDS011;42237;53.340;6.812;2022-09-09T12:44:58;27.17;;;4.00;;
56331;SDS011;42237;53.340;6.812;2022-09-09T12:47:29;12.70;;;3.55;;
56331;SDS011;42237;53.340;6.812;2022-09-09T12:50:00;10.23;;;2.83;;
56331;SDS011;42237;53.340;6.812;2022-09-09T12:52:28;5.05;;;2.25;;
56331;SDS011;42237;53.340;6.812;2022-09-09T12:54:57;4.30;;;1.75;;
56331;SDS011;42237;53.340;6.812;2022-09-09T12:57:26;5.93;;;1.80;;
56331;SDS011;42237;53.340;6.812;2022-09-09T13:00:05;2.63;;;1.65;;
56331;SDS011;42237;53.340;6.812;2022-09-09T13:02:45;4.78;;;1.85;;
56331;SDS011;42237;53.340;6.812;2022-09-09T13:05:20;4.78;;;2.22;;
56331;SDS011;42237;53.340;6.812;2022-09-09T13:07:52;9.75;;;2.58;;
56331;SDS011;42237;53.340;6.812;2022-09-09T13:10:31;9.15;;;2.40;;
56331;SDS011;42237;53.340;6.812;2022-09-09T13:13:00;6.55;;;2.50;;
56331;SDS011;42237;53.340;6.812;2022-09-09T13:15:27;7.53;;;3.08;;
56331;SDS011;42237;53.340;6.812;2022-09-09T13:17:56;9.13;;;2.80;;
56331;SDS011;42237;53.340;6.812;2022-09-09T13:20:28;13.60;;;3.22;;
56331;SDS011;42237;53.340;6.812;2022-09-09T13:22:56;10.27;;;2.92;;
56331;SDS011;42237;53.340;6.812;2022-09-09T13:25:26;8.50;;;3.03;;
56331;SDS011;42237;53.340;6.812;2022-09-09T13:27:55;9.05;;;2.83;;
56331;SDS011;42237;53.340;6.812;2022-09-09T13:35:57;7.40;;;3.15;;
56331;SDS011;42237;53.340;6.812;2022-09-09T13:38:24;8.52;;;2.95;;
56331;SDS011;42237;53.340;6.812;2022-09-09T13:40:54;7.28;;;2.30;;
56331;SDS011;42237;53.340;6.812;2022-09-09T13:43:42;9.07;;;2.83;;
56331;SDS011;42237;53.340;6.812;2022-09-09T13:48:57;13.98;;;2.70;;
56331;SDS011;42237;53.340;6.812;2022-09-09T13:51:37;9.38;;;2.17;;
56331;SDS011;42237;53.340;6.812;2022-09-09T13:54:05;5.47;;;2.13;;
56331;SDS011;42237;53.340;6.812;2022-09-09T13:56:35;6.50;;;2.05;;
56331;SDS011;42237;53.340;6.812;2022-09-09T13:59:02;6.10;;;2.53;;
56331;SDS011;42237;53.340;6.812;2022-09-09T14:01:29;6.60;;;2.00;;
56331;SDS011;42237;53.340;6.812;2022-09-09T14:03:56;6.15;;;2.03;;
56331;SDS011;42237;53.340;6.812;2022-09-09T14:06:22;5.38;;;1.90;;
56331;SDS011;42237;53.340;6.812;2022-09-09T14:08:51;6.78;;;2.03;;
56331;SDS011;42237;53.340;6.812;2022-09-09T14:11:17;6.03;;;2.22;;
56331;SDS011;42237;53.340;6.812;2022-09-09T14:13:44;5.53;;;2.13;;
56331;SDS011;42237;53.340;6.812;2022-09-09T14:16:09;7.22;;;1.95;;
56331;SDS011;42237;53.340;6.812;2022-09-09T14:18:35;9.70;;;2.55;;
56331;SDS011;42237;53.340;6.812;2022-09-09T14:21:03;6.30;;;2.20;;
56331;SDS011;42237;53.340;6.812;2022-09-09T14:23:28;8.40;;;1.77;;
56331;SDS011;42237;53.340;6.812;2022-09-09T14:25:54;6.03;;;2.10;;
56331;SDS011;42237;53.340;6.812;2022-09-09T14:28:20;8.65;;;2.05;;
56331;SDS011;42237;53.340;6.812;2022-09-09T14:30:46;4.10;;;1.83;;
56331;SDS011;42237;53.340;6.812;2022-09-09T14:33:13;6.15;;;2.20;;
56331;SDS011;42237;53.340;6.812;2022-09-09T14:35:40;6.55;;;2.00;;
56331;SDS011;42237;53.340;6.812;2022-09-09T14:38:07;7.93;;;2.45;;
56331;SDS011;42237;53.340;6.812;2022-09-09T14:40:34;9.30;;;2.42;;
56331;SDS011;42237;53.340;6.812;2022-09-09T14:43:00;11.57;;;2.40;;
56331;SDS011;42237;53.340;6.812;2022-09-09T14:45:27;5.90;;;1.77;;
56331;SDS011;42237;53.340;6.812;2022-09-09T14:47:53;5.28;;;2.00;;
56331;SDS011;42237;53.340;6.812;2022-09-09T14:50:20;6.97;;;2.13;;
56331;SDS011;42237;53.340;6.812;2022-09-09T14:52:46;6.53;;;2.30;;
56331;SDS011;42237;53.340;6.812;2022-09-09T14:55:12;9.57;;;2.17;;
56331;SDS011;42237;53.340;6.812;2022-09-09T14:57:38;7.22;;;2.45;;
56331;SDS011;42237;53.340;6.812;2022-09-09T15:00:05;10.48;;;2.30;;
56331;SDS011;42237;53.340;6.812;2022-09-09T15:02:33;8.98;;;2.40;;
56331;SDS011;42237;53.340;6.812;2022-09-09T15:04:59;9.65;;;2.47;;
56331;SDS011;42237;53.340;6.812;2022-09-09T15:07:25;4.88;;;2.13;;
56331;SDS011;42237;53.340;6.812;2022-09-09T15:09:52;4.43;;;2.05;;
56331;SDS011;42237;53.340;6.812;2022-09-09T15:12:18;9.23;;;2.28;;
56331;SDS011;42237;53.340;6.812;2022-09-09T15:14:44;9.10;;;2.40;;
56331;SDS011;42237;53.340;6.812;2022-09-09T15:17:11;5.90;;;2.13;;
56331;SDS011;42237;53.340;6.812;2022-09-09T15:19:37;10.73;;;2.70;;
56331;SDS011;42237;53.340;6.812;2022-09-09T15:22:03;8.70;;;3.00;;
56331;SDS011;42237;53.340;6.812;2022-09-09T15:24:31;7.72;;;2.50;;
56331;SDS011;42237;53.340;6.812;2022-09-09T15:26:57;6.85;;;2.65;;
56331;SDS011;42237;53.340;6.812;2022-09-09T15:29:24;6.55;;;2.72;;
56331;SDS011;42237;53.340;6.812;2022-09-09T15:31:50;7.90;;;2.38;;
56331;SDS011;42237;53.340;6.812;2022-09-09T15:34:16;5.55;;;2.47;;
56331;SDS011;42237;53.340;6.812;2022-09-09T15:36:43;7.25;;;2.97;;
56331;SDS011;42237;53.340;6.812;2022-09-09T15:39:11;6.38;;;2.97;;
56331;SDS011;42237;53.340;6.812;2022-09-09T15:41:44;8.07;;;2.45;;
56331;SDS011;42237;53.340;6.812;2022-09-09T15:44:12;5.47;;;1.95;;
56331;SDS011;42237;53.340;6.812;2022-09-09T15:49:23;8.73;;;3.08;;
56331;SDS011;42237;53.340;6.812;2022-09-09T15:51:57;8.80;;;3.25;;
56331;SDS011;42237;53.340;6.812;2022-09-09T15:54:28;7.53;;;3.58;;
56331;SDS011;42237;53.340;6.812;2022-09-09T15:56:58;10.38;;;4.35;;
56331;SDS011;42237;53.340;6.812;2022-09-09T15:59:25;9.55;;;3.97;;
56331;SDS011;42237;53.340;6.812;2022-09-09T16:01:55;8.80;;;3.88;;
56331;SDS011;42237;53.340;6.812;2022-09-09T16:04:23;9.35;;;4.18;;
56331;SDS011;42237;53.340;6.812;2022-09-09T16:06:50;10.32;;;4.40;;
56331;SDS011;42237;53.340;6.812;2022-09-09T16:09:20;13.18;;;4.90;;
56331;SDS011;42237;53.340;6.812;2022-09-09T16:11:46;7.43;;;3.63;;
56331;SDS011;42237;53.340;6.812;2022-09-09T16:14:13;8.00;;;3.30;;
56331;SDS011;42237;53.340;6.812;2022-09-09T16:16:41;6.35;;;2.03;;
56331;SDS011;42237;53.340;6.812;2022-09-09T16:19:09;5.35;;;1.70;;
56331;SDS011;42237;53.340;6.812;2022-09-09T16:21:44;1.73;;;0.80;;
56331;SDS011;42237;53.340;6.812;2022-09-09T16:24:13;1.48;;;0.95;;
56331;SDS011;42237;53.340;6.812;2022-09-09T16:26:46;4.05;;;1.00;;
56331;SDS011;42237;53.340;6.812;2022-09-09T16:29:13;1.77;;;0.98;;
56331;SDS011;42237;53.340;6.812;2022-09-09T16:31:40;2.63;;;1.05;;
56331;SDS011;42237;53.340;6.812;2022-09-09T16:34:07;2.33;;;1.15;;
56331;SDS011;42237;53.340;6.812;2022-09-09T16:36:35;1.42;;;0.90;;
56331;SDS011;42237;53.340;6.812;2022-09-09T16:39:08;2.10;;;1.05;;
56331;SDS011;42237;53.340;6.812;2022-09-09T16:41:38;3.03;;;0.98;;
56331;SDS011;42237;53.340;6.812;2022-09-09T16:44:06;1.55;;;0.82;;
56331;SDS011;42237;53.340;6.812;2022-09-09T16:46:35;2.25;;;1.20;;
56331;SDS011;42237;53.340;6.812;2022-09-09T16:49:04;3.28;;;1.20;;
56331;SDS011;42237;53.340;6.812;2022-09-09T16:51:32;5.57;;;1.70;;
56331;SDS011;42237;53.340;6.812;2022-09-09T16:54:01;3.53;;;1.75;;
56331;SDS011;42237;53.340;6.812;2022-09-09T16:56:29;6.38;;;2.15;;
56331;SDS011;42237;53.340;6.812;2022-09-09T16:59:05;5.40;;;1.55;;
56331;SDS011;42237;53.340;6.812;2022-09-09T17:01:34;4.82;;;1.67;;
56331;SDS011;42237;53.340;6.812;2022-09-09T17:04:07;3.30;;;1.83;;
56331;SDS011;42237;53.340;6.812;2022-09-09T17:06:36;4.43;;;1.80;;
56331;SDS011;42237;53.340;6.812;2022-09-09T17:09:05;1.83;;;1.38;;
56331;SDS011;42237;53.340;6.812;2022-09-09T17:11:32;3.35;;;1.40;;
56331;SDS011;42237;53.340;6.812;2022-09-09T17:13:59;5.65;;;1.98;;
56331;SDS011;42237;53.340;6.812;2022-09-09T17:16:26;5.35;;;1.90;;
56331;SDS011;42237;53.340;6.812;2022-09-09T17:18:54;5.63;;;2.00;;
56331;SDS011;42237;53.340;6.812;2022-09-09T17:21:21;4.93;;;2.83;;
56331;SDS011;42237;53.340;6.812;2022-09-09T17:23:48;6.35;;;5.35;;
56331;SDS011;42237;53.340;6.812;2022-09-09T17:26:15;14.23;;;12.82;;
56331;SDS011;42237;53.340;6.812;2022-09-09T17:28:42;34.03;;;26.63;;
56331;SDS011;42237;53.340;6.812;2022-09-09T17:31:11;52.05;;;31.55;;
56331;SDS011;42237;53.340;6.812;2022-09-09T17:33:38;33.25;;;19.35;;
56331;SDS011;42237;53.340;6.812;2022-09-09T17:36:07;99.30;;;43.95;;
56331;SDS011;42237;53.340;6.812;2022-09-09T17:38:41;46.35;;;25.88;;
56331;SDS011;42237;53.340;6.812;2022-09-09T17:41:12;25.23;;;13.88;;
56331;SDS011;42237;53.340;6.812;2022-09-09T17:43:38;10.15;;;6.93;;